Terminal Aerodrome Forecast
Issued by NWS Omaha/Valley, NE

Home | Current Version | Previous Version | Graphics & Text | Print | Product List | Glossary On
Versions: 1 2 3 4 5 6 7 8 9 10 11 12 13 14 15 16 17 18
000
FTUS43 KOAX 232329
TAFOFK
TAF
KOFK 232329Z 2400/2424 01008KT P6SM SKC
     FM240300 06004KT P6SM SKC
     FM240900 13004KT P6SM FEW200
     FM241500 14008KT P6SM FEW200
     FM242100 16012KT P6SM FEW250=

USA.gov is the U.S. government's official web portal to all federal, state and local government web resources and services.